Menfro, Missouri
Current Conditions -  °F | °C
As of 6:35 PM on Sunday 25 Jan 2015 (Local Time) from KSAR Reporting Station
Overcast Overcast  
Wind Chill: 28°   Ceiling: 600
Heat Index: 37°   Visibility: 10mi
Dew Point: 35°   Wind: 13mph
Humidity: 94%   Direction: 340°NNW
Pressure: 29.81"   Gusts: 24mph
Location:  37.7768°N, 89.7232°W
Report Text: KSAR 260035Z AUTO 34011G21KT 10SM OVC006 03/02 A2981 RMK AO2 T00250016
Loading
Personal Weather Stations






























Interactive Weather Map New forecast layout! Learn more

10-Day Weather Forecast

Advertisements
Track Severe Weather on mobile